Time;durP1;ratioP1;P1;durP2;ratioP2;P2;SDS_P1;SDS_P2;PMS_P1;PMS_P2;Temp;Humidity;BMP_temperature;BMP_pressure;BME280_temperature;BME280_humidity;BME280_pressure;Samples;Min_cycle;Max_cycle;Signal;HPM_P1;HPM_P2
2023/04/17 00:00:09;;;;;;;;;4.50;4.50;;;;;12.93;48.13;102094.88;4980830;28;56642;-63
2023/04/17 00:02:38;;;;;;;;;5.00;5.00;;;;;12.88;48.65;102080.69;4962379;28;45846;-63
2023/04/17 00:05:05;;;;;;;;;6.25;4.50;;;;;12.87;48.26;102087.84;4980427;28;45515;-63
2023/04/17 00:07:33;;;;;;;;;3.00;3.00;;;;;12.83;48.44;102080.78;4980076;28;45505;-63
2023/04/17 00:09:58;;;;;;;;;5.00;3.75;;;;;12.88;48.51;102083.34;4980954;28;45507;-63
2023/04/17 00:12:23;;;;;;;;;2.50;2.00;;;;;12.83;48.74;102082.56;4978291;28;45336;-63
2023/04/17 00:14:49;;;;;;;;;4.00;4.00;;;;;12.79;48.40;102085.31;4979707;28;45288;-63
2023/04/17 00:17:14;;;;;;;;;4.00;4.00;;;;;12.80;48.60;102078.19;4980935;28;51960;-63
2023/04/17 00:19:39;;;;;;;;;3.00;3.00;;;;;12.78;48.46;102074.66;4980838;28;46118;-63
2023/04/17 00:22:05;;;;;;;;;4.75;3.50;;;;;12.85;48.89;102070.03;4980060;28;59905;-63
2023/04/17 00:24:30;;;;;;;;;4.00;4.00;;;;;12.78;49.06;102061.25;4985021;28;45363;-63
2023/04/17 00:26:56;;;;;;;;;4.00;4.00;;;;;12.82;48.75;102062.06;4983560;28;45265;-63
2023/04/17 00:29:21;;;;;;;;;4.00;4.00;;;;;12.79;48.85;102065.69;4979935;28;46321;-63
2023/04/17 00:31:46;;;;;;;;;4.00;3.25;;;;;12.75;48.77;102062.19;4977946;28;45492;-63
2023/04/17 00:34:12;;;;;;;;;5.75;3.00;;;;;12.69;48.88;102067.66;4979282;28;45321;-63
2023/04/17 00:36:37;;;;;;;;;4.25;4.25;;;;;12.64;49.18;102064.19;4983457;28;46817;-63
2023/04/17 00:39:02;;;;;;;;;4.75;3.75;;;;;12.62;49.27;102062.47;4979491;28;45879;-63
2023/04/17 00:41:28;;;;;;;;;6.50;5.25;;;;;12.61;49.49;102064.25;4987404;28;45376;-63
2023/04/17 00:43:53;;;;;;;;;4.00;3.75;;;;;12.62;49.52;102057.13;4979169;28;47682;-63
2023/04/17 00:46:18;;;;;;;;;4.75;4.75;;;;;12.63;49.61;102053.50;4973578;28;45458;-63
2023/04/17 00:48:44;;;;;;;;;5.00;3.25;;;;;12.53;49.52;102044.75;4962930;28;46031;-63
2023/04/17 00:51:10;;;;;;;;;5.00;3.75;;;;;12.55;50.02;102054.53;4975240;28;45843;-63
2023/04/17 00:53:35;;;;;;;;;3.00;3.00;;;;;12.58;50.14;102054.50;4974974;28;45618;-63
2023/04/17 00:56:04;;;;;;;;;4.25;4.25;;;;;12.54;50.16;102038.50;4980298;28;45535;-63
2023/04/17 00:58:30;;;;;;;;;6.75;6.50;;;;;12.55;50.42;102041.16;4980063;28;45368;-63
2023/04/17 01:00:55;;;;;;;;;4.00;3.25;;;;;12.56;50.50;102040.25;4979195;28;45376;-63
2023/04/17 01:03:21;;;;;;;;;4.50;4.50;;;;;12.55;50.35;102034.94;4979217;28;45551;-63
2023/04/17 01:05:50;;;;;;;;;3.75;3.50;;;;;12.43;50.24;102025.34;4979420;28;45319;-63
2023/04/17 01:08:16;;;;;;;;;4.00;4.00;;;;;12.48;50.75;102034.16;4980011;28;46214;-63
2023/04/17 01:10:41;;;;;;;;;6.00;5.00;;;;;12.45;50.75;102026.19;4979597;28;45931;-63
2023/04/17 01:13:07;;;;;;;;;4.00;4.00;;;;;12.46;50.83;102027.94;4980142;28;45388;-63
2023/04/17 01:15:34;;;;;;;;;5.50;4.25;;;;;12.52;50.72;102033.19;4983211;28;45326;-63
2023/04/17 01:18:00;;;;;;;;;4.75;4.75;;;;;12.46;50.92;102024.38;4985307;28;46006;-63
2023/04/17 01:20:29;;;;;;;;;4.50;4.00;;;;;12.52;50.81;102029.63;4976786;28;45602;-63
2023/04/17 01:22:58;;;;;;;;;4.50;4.50;;;;;12.47;50.85;102034.19;4978933;28;45377;-63
2023/04/17 01:25:25;;;;;;;;;4.50;4.00;;;;;12.50;50.71;102043.03;4986391;28;45341;-63
2023/04/17 01:27:50;;;;;;;;;4.50;3.00;;;;;12.46;50.93;102033.28;4977554;28;46127;-63
2023/04/17 01:30:16;;;;;;;;;4.25;4.25;;;;;12.43;51.13;102030.69;4984182;28;45391;-63
2023/04/17 01:32:41;;;;;;;;;4.00;2.50;;;;;12.40;51.22;102033.44;4986728;28;45315;-63
2023/04/17 01:35:07;;;;;;;;;4.00;4.00;;;;;12.33;50.88;102032.66;4978803;28;45286;-63
2023/04/17 01:37:32;;;;;;;;;5.00;5.00;;;;;12.32;51.45;102028.22;4979159;28;46162;-63
2023/04/17 01:39:58;;;;;;;;;4.00;4.00;;;;;12.29;51.04;102024.72;4979489;28;45530;-63
2023/04/17 01:42:23;;;;;;;;;3.75;3.75;;;;;12.30;50.45;102042.56;4979894;28;45350;-63
2023/04/17 01:44:49;;;;;;;;;8.00;6.00;;;;;12.25;51.56;102031.91;4984206;28;45376;-63
2023/04/17 01:47:14;;;;;;;;;4.50;4.50;;;;;12.26;51.89;102027.44;4979566;28;46365;-63
2023/04/17 01:49:40;;;;;;;;;7.00;5.50;;;;;12.28;51.49;102030.97;4978044;28;45500;-63
2023/04/17 01:52:05;;;;;;;;;10.00;7.00;;;;;12.30;51.63;102030.03;4985205;28;45602;-63
2023/04/17 01:54:30;;;;;;;;;5.50;5.50;;;;;12.30;51.77;102038.06;4983137;28;45555;-63
2023/04/17 01:56:56;;;;;;;;;5.00;4.50;;;;;12.26;51.97;102030.13;4984939;28;46369;-63
2023/04/17 01:59:22;;;;;;;;;7.00;5.00;;;;;12.25;51.99;102031.91;4977198;28;45484;-63
2023/04/17 02:01:51;;;;;;;;;4.00;4.00;;;;;12.29;51.87;102033.63;4979686;28;45477;-63
2023/04/17 02:04:16;;;;;;;;;6.00;5.00;;;;;12.29;51.99;102025.59;4977663;28;45596;-63
2023/04/17 02:06:42;;;;;;;;;7.75;7.00;;;;;12.26;52.00;102030.13;4979216;28;45380;-63
2023/04/17 02:09:07;;;;;;;;;5.00;5.00;;;;;12.22;52.22;102029.28;4975973;28;45394;-63
2023/04/17 02:11:33;;;;;;;;;5.75;5.75;;;;;12.27;52.12;102038.13;4978345;28;45500;-63
2023/04/17 02:13:58;;;;;;;;;7.00;7.00;;;;;12.24;51.60;102032.81;4985808;28;45372;-63
2023/04/17 02:16:23;;;;;;;;;9.00;5.75;;;;;12.19;51.84;102032.91;4978950;28;46195;-63
2023/04/17 02:18:50;;;;;;;;;6.25;4.50;;;;;12.12;52.11;102022.34;4978681;28;53227;-63
2023/04/17 02:21:15;;;;;;;;;8.50;7.00;;;;;12.16;52.23;102024.94;4979006;28;45450;-63
2023/04/17 02:23:41;;;;;;;;;5.50;5.50;;;;;12.20;52.15;102026.66;4972854;28;45303;-63
2023/04/17 02:26:06;;;;;;;;;6.00;5.25;;;;;12.19;52.52;102030.22;4977822;28;46175;-63
2023/04/17 02:28:31;;;;;;;;;8.50;6.50;;;;;12.16;52.42;102019.59;4977676;28;47071;-63
2023/04/17 02:30:57;;;;;;;;;7.00;7.00;;;;;12.13;52.15;102019.66;4986466;28;45474;-63
2023/04/17 02:33:22;;;;;;;;;7.00;6.25;;;;;12.04;52.56;102011.78;4979082;28;45306;-63
2023/04/17 02:35:48;;;;;;;;;5.00;5.00;;;;;12.03;52.69;102021.59;4980673;28;53550;-63
2023/04/17 02:38:13;;;;;;;;;8.00;7.00;;;;;12.00;52.29;102021.66;4979019;28;45301;-63
2023/04/17 02:40:38;;;;;;;;;5.75;5.75;;;;;11.94;52.73;102027.09;4978988;28;45429;-63
2023/04/17 02:43:04;;;;;;;;;10.25;8.25;;;;;11.85;53.07;102008.53;4979085;28;45290;-63
2023/04/17 02:45:29;;;;;;;;;7.00;7.00;;;;;11.95;53.05;102020.00;4973120;28;53149;-63
2023/04/17 02:47:55;;;;;;;;;8.50;7.00;;;;;11.93;52.97;102014.66;4976752;28;45354;-63
2023/04/17 02:50:20;;;;;;;;;7.00;7.00;;;;;11.97;53.20;102021.72;4978892;28;45400;-63
2023/04/17 02:52:46;;;;;;;;;8.50;7.00;;;;;11.98;53.13;102019.94;4978942;28;45321;-63
2023/04/17 02:55:11;;;;;;;;;7.00;7.00;;;;;12.00;53.73;102020.78;4981737;28;45337;-63
2023/04/17 02:57:36;;;;;;;;;10.25;8.25;;;;;12.00;53.61;102010.09;4977954;28;45290;-63
2023/04/17 03:00:06;;;;;;;;;9.75;9.75;;;;;11.95;53.53;102014.63;4978889;28;45559;-63
2023/04/17 03:02:32;;;;;;;;;12.25;11.00;;;;;11.87;53.84;102006.69;4978276;28;45376;-63
2023/04/17 03:05:00;;;;;;;;;13.00;9.50;;;;;11.85;54.04;102011.19;4976450;28;45694;-63
2023/04/17 03:07:26;;;;;;;;;11.00;10.75;;;;;11.79;53.95;102009.50;4978730;28;45682;-63
2023/04/17 03:09:52;;;;;;;;;11.75;10.50;;;;;11.78;54.30;102014.91;4978234;28;45403;-63
2023/04/17 03:12:18;;;;;;;;;12.50;10.00;;;;;11.76;54.38;102025.63;4978605;28;45520;-63
2023/04/17 03:14:43;;;;;;;;;12.50;9.75;;;;;11.64;54.07;102007.09;4977032;28;45389;-62
2023/04/17 03:17:10;;;;;;;;;11.50;11.00;;;;;11.56;54.21;102012.56;4979740;28;50091;-63
2023/04/17 03:19:36;;;;;;;;;9.00;9.00;;;;;11.52;54.41;102015.31;4981470;28;45507;-63
2023/04/17 03:22:01;;;;;;;;;11.75;11.75;;;;;11.46;54.77;102011.84;4978412;28;45383;-63
2023/04/17 03:24:27;;;;;;;;;13.00;10.50;;;;;11.43;54.58;102014.56;4978055;28;45432;-63
2023/04/17 03:26:52;;;;;;;;;10.25;10.00;;;;;11.40;54.67;102006.56;4977327;28;45494;-63
2023/04/17 03:29:18;;;;;;;;;11.00;9.25;;;;;11.45;54.80;102023.44;4979631;28;45391;-62
2023/04/17 03:31:43;;;;;;;;;10.00;9.00;;;;;11.41;54.91;102016.38;4981685;28;45304;-63
2023/04/17 03:34:08;;;;;;;;;9.25;9.25;;;;;11.30;54.84;102019.19;4986451;28;60311;-63
2023/04/17 03:36:35;;;;;;;;;11.75;11.75;;;;;11.29;55.20;102008.53;4981224;28;45385;-63
2023/04/17 03:39:00;;;;;;;;;12.50;12.00;;;;;11.30;55.13;102005.84;4986742;28;45532;-63
2023/04/17 03:41:26;;;;;;;;;14.25;10.25;;;;;11.35;55.19;102020.94;4982056;28;45293;-63
2023/04/17 03:43:51;;;;;;;;;11.50;9.25;;;;;11.27;55.07;102008.53;4981754;28;46294;-64
2023/04/17 03:46:17;;;;;;;;;11.00;9.00;;;;;11.39;55.39;102025.31;4961140;28;45468;-63
2023/04/17 03:48:42;;;;;;;;;12.25;11.50;;;;;11.40;54.85;102024.41;4981820;28;45511;-63
2023/04/17 03:51:08;;;;;;;;;12.25;10.25;;;;;11.35;54.80;102024.47;4981492;28;45733;-64
2023/04/17 03:53:33;;;;;;;;;9.75;9.00;;;;;11.31;54.82;102029.00;4981668;28;45605;-63
2023/04/17 03:55:58;;;;;;;;;8.00;8.00;;;;;11.30;55.05;102035.22;4977448;28;45356;-63
2023/04/17 03:58:24;;;;;;;;;15.75;12.50;;;;;11.29;55.00;102033.50;4980568;28;45590;-63
2023/04/17 04:00:54;;;;;;;;;26.50;25.25;;;;;11.32;55.11;102029.88;4980395;28;45433;-63
2023/04/17 04:03:19;;;;;;;;;13.00;13.00;;;;;11.35;55.08;102032.50;4981143;28;47396;-63
2023/04/17 04:05:45;;;;;;;;;10.00;9.50;;;;;11.44;55.60;102039.50;4978473;28;45387;-63
2023/04/17 04:08:10;;;;;;;;;12.00;11.00;;;;;11.42;55.14;102036.84;4981397;28;45435;-63
2023/04/17 04:10:35;;;;;;;;;10.25;9.25;;;;;11.43;55.49;102040.41;4980894;28;45358;-63
2023/04/17 04:13:01;;;;;;;;;14.50;12.00;;;;;11.43;55.93;102046.63;4980755;28;45342;-63
2023/04/17 04:15:26;;;;;;;;;15.25;12.00;;;;;11.43;55.19;102035.94;4979090;28;60647;-63
2023/04/17 04:17:51;;;;;;;;;12.25;11.25;;;;;11.31;55.15;102012.97;4981131;28;45337;-65
2023/04/17 04:20:17;;;;;;;;;13.00;12.00;;;;;11.47;55.45;102037.66;4980722;28;45322;-64
2023/04/17 04:22:43;;;;;;;;;12.25;10.00;;;;;11.50;55.42;102034.06;4980928;28;46045;-64
2023/04/17 04:25:09;;;;;;;;;9.75;9.75;;;;;11.55;55.10;102039.34;4977530;28;45388;-64
2023/04/17 04:27:34;;;;;;;;;14.50;13.50;;;;;11.56;55.05;102038.41;4979491;28;45505;-64
2023/04/17 04:30:00;;;;;;;;;11.50;9.50;;;;;11.59;55.11;102043.72;4987155;28;45349;-64
2023/04/17 04:32:26;;;;;;;;;9.50;9.00;;;;;11.61;55.23;102037.47;4982981;28;45480;-63
2023/04/17 04:34:57;;;;;;;;;9.25;9.25;;;;;11.51;55.35;102030.50;4979763;28;45452;-64
2023/04/17 04:37:28;;;;;;;;;12.50;11.50;;;;;11.52;55.47;102032.25;4964909;28;45407;-64
2023/04/17 04:40:08;;;;;;;;;13.25;11.75;;;;;11.61;55.70;102049.91;4980578;28;45396;-64
2023/04/17 04:42:34;;;;;;;;;15.50;12.75;;;;;11.59;55.81;102044.59;4979309;28;45467;-64
2023/04/17 04:44:59;;;;;;;;;13.50;13.50;;;;;11.62;55.54;102047.22;4979293;28;45367;-64
2023/04/17 04:47:24;;;;;;;;;10.75;10.00;;;;;11.61;55.37;102045.47;4980288;28;45419;-63
2023/04/17 04:49:49;;;;;;;;;20.25;18.75;;;;;11.57;55.61;102042.88;4980500;28;45472;-64
2023/04/17 04:52:15;;;;;;;;;13.50;13.50;;;;;11.60;55.76;102054.41;4980077;28;45329;-64
2023/04/17 04:54:40;;;;;;;;;14.75;12.25;;;;;11.57;55.74;102041.06;4980293;28;45421;-64
2023/04/17 04:57:05;;;;;;;;;12.00;11.00;;;;;11.60;55.59;102050.84;4979685;28;56646;-62
2023/04/17 04:59:31;;;;;;;;;15.75;13.50;;;;;11.68;55.81;102051.63;4979042;28;55734;-62
2023/04/17 05:01:56;;;;;;;;;11.75;11.25;;;;;11.64;55.48;102047.19;4980303;28;46203;-62
2023/04/17 05:04:21;;;;;;;;;13.50;12.25;;;;;11.66;55.47;102046.28;4990547;28;45344;-62
2023/04/17 05:06:47;;;;;;;;;17.75;13.75;;;;;11.67;56.03;102055.19;4990665;28;45507;-62
2023/04/17 05:09:12;;;;;;;;;17.75;14.00;;;;;11.69;55.86;102050.69;4989746;28;45719;-62
2023/04/17 05:11:37;;;;;;;;;9.25;9.25;;;;;11.63;56.03;102042.78;4979932;28;48258;-62
2023/04/17 05:14:02;;;;;;;;;19.25;18.75;;;;;11.70;55.65;102052.47;4982874;28;46474;-62
2023/04/17 05:16:28;;;;;;;;;21.50;17.25;;;;;11.62;55.83;102049.91;4977144;28;45379;-62
2023/04/17 05:18:54;;;;;;;;;16.50;14.00;;;;;11.55;56.19;102042.88;4983924;28;55422;-62
2023/04/17 05:21:19;;;;;;;;;15.25;15.25;;;;;11.55;56.03;102050.91;4979463;28;45389;-62
2023/04/17 05:23:44;;;;;;;;;17.00;17.00;;;;;11.57;56.38;102049.09;4978946;28;54997;-64
2023/04/17 05:26:10;;;;;;;;;21.25;16.75;;;;;11.54;56.91;102046.47;4980709;28;45411;-64
2023/04/17 05:28:35;;;;;;;;;18.00;18.00;;;;;11.60;56.67;102053.53;4978294;28;59522;-64
2023/04/17 05:31:00;;;;;;;;;25.75;22.25;;;;;11.60;56.73;102054.41;4978318;28;46262;-64
2023/04/17 05:33:26;;;;;;;;;19.00;19.00;;;;;11.57;56.65;102049.09;4979796;28;45318;-64
2023/04/17 05:35:51;;;;;;;;;22.00;19.75;;;;;11.62;56.78;102065.06;4977001;28;45400;-64
2023/04/17 05:38:17;;;;;;;;;19.75;17.00;;;;;11.63;56.57;102056.16;4978854;28;45286;-63
2023/04/17 05:40:42;;;;;;;;;12.75;12.75;;;;;11.66;57.01;102066.78;4977490;28;45449;-64
2023/04/17 05:43:09;;;;;;;;;19.50;18.00;;;;;11.67;56.78;102056.06;4979217;28;45541;-64
2023/04/17 05:45:35;;;;;;;;;19.75;15.25;;;;;11.67;57.01;102055.19;4979467;28;45546;-64
2023/04/17 05:48:00;;;;;;;;;18.50;17.25;;;;;11.67;57.07;102047.16;4964943;28;45456;-64
2023/04/17 05:50:25;;;;;;;;;26.75;23.75;;;;;11.71;57.09;102056.00;4972561;28;47627;-64
2023/04/17 05:52:51;;;;;;;;;30.50;23.75;;;;;11.70;57.26;102054.28;4980748;28;45361;-64
2023/04/17 05:55:18;;;;;;;;;16.00;13.00;;;;;11.71;56.91;102054.25;4979304;28;45420;-64
2023/04/17 05:57:44;;;;;;;;;17.25;17.25;;;;;11.73;56.94;102049.75;4969919;28;45255;-64
2023/04/17 06:00:11;;;;;;;;;28.00;20.50;;;;;11.81;56.88;102066.56;4978268;28;46344;-61
2023/04/17 06:02:37;;;;;;;;;24.00;22.75;;;;;11.81;56.95;102058.53;4983055;28;45288;-61
2023/04/17 06:05:05;;;;;;;;;24.25;22.50;;;;;11.78;57.24;102053.22;4980103;28;45356;-62
2023/04/17 06:07:32;;;;;;;;;28.00;23.25;;;;;11.74;57.30;102058.66;4979366;28;45375;-61
2023/04/17 06:09:57;;;;;;;;;25.75;23.25;;;;;11.75;57.29;102068.44;4976480;28;46432;-67
2023/04/17 06:12:23;;;;;;;;;20.25;18.75;;;;;11.76;57.29;102062.16;4978386;28;45333;-67
2023/04/17 06:14:48;;;;;;;;;22.25;19.50;;;;;11.73;57.58;102051.50;4978490;28;45313;-64
2023/04/17 06:17:14;;;;;;;;;22.00;20.75;;;;;11.79;57.92;102064.81;4978858;28;45306;-66
2023/04/17 06:19:39;;;;;;;;;28.50;23.25;;;;;11.68;57.80;102049.81;4962719;28;47078;-65
2023/04/17 06:22:05;;;;;;;;;24.50;21.00;;;;;11.68;58.08;102046.25;4981270;28;45424;-65
2023/04/17 06:24:30;;;;;;;;;23.25;22.00;;;;;11.78;58.02;102068.41;4978978;28;45403;-66
2023/04/17 06:26:56;;;;;;;;;26.75;25.00;;;;;11.79;58.06;102071.03;4978010;28;45672;-66
2023/04/17 06:29:22;;;;;;;;;30.25;25.75;;;;;11.75;58.18;102066.66;4980229;28;45516;-68
2023/04/17 06:31:47;;;;;;;;;26.75;23.75;;;;;11.74;58.51;102066.66;4980294;28;45376;-68
2023/04/17 06:34:12;;;;;;;;;28.00;26.50;;;;;11.71;58.55;102075.66;4979515;28;45380;-68
2023/04/17 06:36:38;;;;;;;;;26.00;24.25;;;;;11.62;58.58;102063.28;4988491;28;45512;-68
2023/04/17 06:39:03;;;;;;;;;28.75;28.75;;;;;11.73;58.85;102079.16;4981843;28;46658;-68
2023/04/17 06:41:29;;;;;;;;;28.25;24.50;;;;;11.71;58.70;102061.38;4977994;28;45452;-68
2023/04/17 06:43:54;;;;;;;;;30.25;25.50;;;;;11.76;58.87;102070.19;4977405;28;45803;-69
2023/04/17 06:46:21;;;;;;;;;22.75;22.25;;;;;11.77;58.86;102086.22;4978328;28;45496;-69
2023/04/17 06:48:48;;;;;;;;;32.00;29.25;;;;;11.72;58.94;102068.50;4979693;28;45518;-69
2023/04/17 06:51:13;;;;;;;;;29.75;28.00;;;;;11.67;59.02;102080.13;4990796;28;45745;-69
2023/04/17 06:53:39;;;;;;;;;33.00;29.75;;;;;11.59;59.46;102081.16;4979266;28;45344;-69
2023/04/17 06:56:04;;;;;;;;;30.75;27.50;;;;;11.55;59.45;102079.47;4978523;28;45290;-69
2023/04/17 06:58:30;;;;;;;;;27.75;23.50;;;;;11.58;59.45;102085.63;4978608;28;46066;-69
2023/04/17 07:00:55;;;;;;;;;36.00;31.25;;;;;11.61;59.71;102092.72;4980583;28;45298;-69
2023/04/17 07:03:21;;;;;;;;;26.25;25.75;;;;;11.61;59.78;102092.72;4998678;28;45343;-69
2023/04/17 07:05:47;;;;;;;;;25.50;24.00;;;;;11.60;59.98;102088.28;4983537;28;45386;-69
2023/04/17 07:08:14;;;;;;;;;30.25;25.75;;;;;11.62;60.08;102091.81;4977801;28;46011;-65
2023/04/17 07:10:42;;;;;;;;;35.50;33.50;;;;;11.68;60.26;102100.63;4976577;28;45424;-65
2023/04/17 07:13:07;;;;;;;;;33.25;31.25;;;;;11.59;60.22;102090.06;4982337;28;45363;-65
2023/04/17 07:15:33;;;;;;;;;32.75;32.25;;;;;11.67;60.29;102106.00;4978799;28;50982;-65
2023/04/17 07:17:58;;;;;;;;;37.75;31.75;;;;;11.61;60.51;102098.06;4981156;28;45336;-65
2023/04/17 07:20:23;;;;;;;;;34.00;30.75;;;;;11.59;60.84;102099.88;4981708;28;46793;-65
2023/04/17 07:22:49;;;;;;;;;36.75;32.00;;;;;11.59;60.93;102106.09;4981116;28;45234;-62
2023/04/17 07:25:15;;;;;;;;;30.50;26.00;;;;;11.54;60.95;102104.41;4981292;28;45476;-62
2023/04/17 07:27:40;;;;;;;;;36.75;31.25;;;;;11.58;61.26;102111.50;4977475;28;46433;-63
2023/04/17 07:30:07;;;;;;;;;34.25;31.00;;;;;11.58;61.46;102117.72;4977227;28;45523;-60
2023/04/17 07:32:32;;;;;;;;;34.50;31.75;;;;;11.62;61.15;102123.91;4980048;28;45380;-62
2023/04/17 07:34:57;;;;;;;;;29.00;28.50;;;;;11.61;60.82;102116.78;4980406;28;46402;-57
2023/04/17 07:37:23;;;;;;;;;35.00;32.25;;;;;11.60;60.80;102107.00;4979536;28;46041;-57
2023/04/17 07:39:49;;;;;;;;;31.75;30.75;;;;;11.74;61.17;102123.72;4980126;28;45426;-58
2023/04/17 07:42:15;;;;;;;;;27.75;26.50;;;;;11.79;61.02;102123.66;4980215;28;45470;-58
2023/04/17 07:44:40;;;;;;;;;29.50;27.00;;;;;11.82;60.70;102132.50;4981441;28;45487;-58
2023/04/17 07:47:06;;;;;;;;;35.25;32.75;;;;;11.81;61.01;102111.13;4981064;28;46480;-60
2023/04/17 07:49:31;;;;;;;;;32.25;29.00;;;;;11.78;60.81;102124.59;4978965;28;45536;-60
2023/04/17 07:51:57;;;;;;;;;33.00;29.75;;;;;11.81;61.19;102121.84;4982311;28;45511;-60
2023/04/17 07:54:22;;;;;;;;;40.25;34.25;;;;;11.78;61.14;102119.22;4984238;28;45475;-60
2023/04/17 07:56:50;;;;;;;;;33.25;31.75;;;;;11.77;61.05;102118.31;4979967;28;53561;-60
2023/04/17 07:59:16;;;;;;;;;37.50;33.25;;;;;11.79;61.27;102124.53;4980978;28;45666;-60
2023/04/17 08:01:41;;;;;;;;;38.00;32.00;;;;;11.73;61.17;102127.31;4978958;28;45439;-60
2023/04/17 08:04:08;;;;;;;;;44.50;36.50;;;;;11.76;61.58;102132.63;4982867;28;45341;-60
2023/04/17 08:06:33;;;;;;;;;44.75;35.75;;;;;11.72;61.71;102124.66;4980575;28;45929;-60
2023/04/17 08:09:00;;;;;;;;;38.25;33.50;;;;;11.70;61.69;102131.84;4980280;28;45493;-60
2023/04/17 08:11:26;;;;;;;;;41.75;36.75;;;;;11.69;62.22;102128.25;4984449;28;45427;-62
2023/04/17 08:13:52;;;;;;;;;33.00;29.75;;;;;11.61;62.22;102116.78;4983385;28;45553;-62
2023/04/17 08:16:18;;;;;;;;;35.50;34.00;;;;;11.61;62.26;102123.03;4974277;28;45428;-63
2023/04/17 08:18:43;;;;;;;;;41.25;35.25;;;;;11.70;62.52;102130.03;4975989;28;45444;-63
2023/04/17 08:21:09;;;;;;;;;39.50;29.25;;;;;11.68;62.41;102129.19;4976763;28;45289;-61
2023/04/17 08:23:34;;;;;;;;;31.50;30.50;;;;;11.59;62.68;102108.78;4978324;28;45518;-62
2023/04/17 08:26:00;;;;;;;;;34.25;29.25;;;;;11.42;62.57;102082.28;4978398;28;46203;-61
2023/04/17 08:28:25;;;;;;;;;34.00;30.50;;;;;11.59;62.41;102102.56;4978218;28;45387;-59
2023/04/17 08:30:51;;;;;;;;;39.75;36.25;;;;;11.67;62.75;102122.94;4979029;28;45420;-58
2023/04/17 08:33:17;;;;;;;;;36.50;32.25;;;;;11.80;62.39;102134.34;4960085;28;45546;-59
2023/04/17 08:35:43;;;;;;;;;39.25;32.25;;;;;11.83;62.56;102128.94;4958849;28;47195;-58
2023/04/17 08:38:12;;;;;;;;;40.25;33.25;;;;;11.79;62.39;102124.53;4979249;28;45772;-59
2023/04/17 08:40:40;;;;;;;;;36.75;33.25;;;;;11.91;62.36;102131.53;4978594;28;45486;-59
2023/04/17 08:43:13;;;;;;;;;36.00;32.00;;;;;11.97;62.58;102131.41;4989665;28;45593;-59
2023/04/17 08:45:42;;;;;;;;;40.25;36.00;;;;;11.96;62.48;102126.09;4978216;28;47295;-59
2023/04/17 08:48:07;;;;;;;;;35.25;31.50;;;;;11.91;62.59;102115.50;4975178;28;45431;-58
2023/04/17 08:50:33;;;;;;;;;36.25;33.75;;;;;12.03;62.59;102133.13;4961148;28;45528;-59
2023/04/17 08:52:59;;;;;;;;;51.75;37.25;;;;;11.93;62.70;102113.66;4975599;28;45625;-59
2023/04/17 08:55:27;;;;;;;;;50.50;40.00;;;;;11.96;62.66;102123.41;4976714;28;45547;-59
2023/04/17 08:58:02;;;;;;;;;41.75;35.75;;;;;12.00;62.40;102123.34;4977042;28;45510;-59
2023/04/17 09:00:39;;;;;;;;;45.50;36.75;;;;;11.93;62.81;102112.75;4993913;28;45428;-59
2023/04/17 09:03:07;;;;;;;;;44.25;36.50;;;;;11.91;62.82;102109.19;4984626;28;45346;-59
2023/04/17 09:05:35;;;;;;;;;40.50;36.75;;;;;11.94;62.84;102123.44;4977087;28;46541;-59
2023/04/17 09:08:20;;;;;;;;;52.25;37.00;;;;;11.95;62.85;102122.53;4976720;28;45850;-59
2023/04/17 09:10:51;;;;;;;;;44.50;37.00;;;;;11.95;62.53;102113.66;4977930;28;45499;-59
2023/04/17 09:13:18;;;;;;;;;49.50;39.75;;;;;11.85;62.98;102113.75;4977556;28;45422;-59
2023/04/17 09:15:46;;;;;;;;;47.25;38.75;;;;;11.96;63.11;102124.31;4978514;28;46203;-59
2023/04/17 09:18:26;;;;;;;;;38.00;35.00;;;;;11.91;63.08;102115.50;4976904;28;45681;-59
2023/04/17 09:20:51;;;;;;;;;44.50;38.75;;;;;11.97;63.11;102127.88;4977199;28;45444;-59
2023/04/17 09:23:19;;;;;;;;;49.50;40.50;;;;;12.01;63.45;102116.19;4977579;28;45430;-59
2023/04/17 09:25:45;;;;;;;;;35.75;32.50;;;;;12.04;62.64;102127.75;4975497;28;47290;-59
2023/04/17 09:28:13;;;;;;;;;42.00;34.75;;;;;11.97;62.67;102114.50;4975113;28;45451;-59
2023/04/17 09:30:40;;;;;;;;;46.75;38.50;;;;;12.05;63.08;102123.28;4977769;28;45558;-59
2023/04/17 09:33:07;;;;;;;;;50.75;37.75;;;;;12.08;63.34;102119.66;4994614;28;45428;-59
2023/04/17 09:35:38;;;;;;;;;47.25;39.50;;;;;12.10;62.89;102116.06;4978588;28;46805;-59
2023/04/17 09:38:04;;;;;;;;;44.50;37.75;;;;;12.06;62.99;102106.28;4981826;28;45551;-59
2023/04/17 09:40:40;;;;;;;;;46.00;39.50;;;;;12.11;63.12;102117.84;4978017;28;45503;-59
2023/04/17 09:43:09;;;;;;;;;44.25;37.25;;;;;12.08;63.32;102108.94;4976702;28;45528;-59
2023/04/17 09:45:35;;;;;;;;;37.50;33.25;;;;;12.15;62.54;102119.53;4973358;28;45548;-59
2023/04/17 09:48:11;;;;;;;;;42.50;36.75;;;;;12.05;62.94;102091.16;4960307;28;45833;-59
2023/04/17 09:50:37;;;;;;;;;49.50;39.00;;;;;12.18;63.17;102110.59;4978168;28;45429;-59
2023/04/17 09:53:03;;;;;;;;;46.25;40.25;;;;;12.23;62.99;102112.25;4977657;28;45451;-59
2023/04/17 09:55:35;;;;;;;;;40.00;36.75;;;;;12.19;63.04;102110.53;4975785;28;46415;-59
2023/04/17 09:58:02;;;;;;;;;41.00;35.75;;;;;12.20;63.12;102101.59;4948070;28;45484;-59
2023/04/17 10:00:28;;;;;;;;;45.50;35.25;;;;;12.26;63.16;102103.28;4973696;28;45583;-59
2023/04/17 10:02:55;;;;;;;;;49.75;39.00;;;;;12.36;62.86;102117.38;4977551;28;45662;-59
2023/04/17 10:05:26;;;;;;;;;45.50;37.75;;;;;12.27;63.03;102098.81;4980222;28;47011;-59
2023/04/17 10:07:51;;;;;;;;;39.25;36.00;;;;;12.34;63.13;102113.88;4973535;28;45544;-59
2023/04/17 10:10:25;;;;;;;;;42.50;37.00;;;;;12.36;62.96;102104.91;4976837;28;45392;-59
2023/04/17 10:12:55;;;;;;;;;44.25;36.00;;;;;12.39;63.11;102120.88;4977821;28;45748;-59
2023/04/17 10:15:22;;;;;;;;;38.50;34.50;;;;;12.33;62.75;102113.00;4985546;28;46254;-59
2023/04/17 10:17:48;;;;;;;;;47.25;38.50;;;;;12.32;63.33;102104.97;4975569;28;45692;-59
2023/04/17 10:20:13;;;;;;;;;49.50;40.50;;;;;12.45;63.01;102117.25;4977039;28;45706;-59
2023/04/17 10:22:40;;;;;;;;;37.33;33.00;;;;;12.36;62.67;102107.59;4977592;28;45428;-59
2023/04/17 10:25:11;;;;;;;;;52.00;39.50;;;;;12.37;62.55;102113.81;4976060;28;46262;-59
2023/04/17 10:27:37;;;;;;;;;45.00;36.00;;;;;12.32;62.85;102111.22;4984186;28;45792;-59
2023/04/17 10:30:06;;;;;;;;;45.25;38.50;;;;;12.22;62.72;102099.78;4977878;28;45491;-60
2023/04/17 10:32:33;;;;;;;;;41.00;35.75;;;;;12.34;63.35;102104.03;4976192;28;45735;-60
2023/04/17 10:35:21;;;;;;;;;42.50;37.50;;;;;12.40;63.37;102103.94;4960421;28;48336;-59
2023/04/17 10:37:46;;;;;;;;;49.50;39.50;;;;;12.39;63.22;102107.50;4981661;28;45472;-59
2023/04/17 10:40:19;;;;;;;;;47.75;37.00;;;;;12.32;63.18;102095.16;4979664;28;45377;-60
2023/04/17 10:43:00;;;;;;;;;46.25;40.00;;;;;12.19;63.16;102065.03;4980828;28;45736;-59
2023/04/17 10:45:52;;;;;;;;;54.00;39.25;;;;;12.39;63.43;102090.56;4979850;28;45623;-60
2023/04/17 10:48:37;;;;;;;;;50.50;37.50;;;;;12.44;63.36;102099.38;4962270;28;45433;-59
2023/04/17 10:51:25;;;;;;;;;46.25;40.00;;;;;12.46;63.25;102096.69;4980983;28;45424;-61
2023/04/17 10:53:55;;;;;;;;;51.25;38.75;;;;;12.36;63.46;102083.47;4980491;28;45438;-60
2023/04/17 10:56:47;;;;;;;;;46.75;38.25;;;;;12.19;63.34;102056.13;4981378;28;45629;-62
2023/04/17 10:59:22;;;;;;;;;43.00;36.75;;;;;12.45;63.49;102100.28;4974701;28;45522;-59
2023/04/17 11:01:47;;;;;;;;;50.50;39.50;;;;;12.46;63.15;102100.25;4976259;28;45536;-59
2023/04/17 11:04:25;;;;;;;;;49.25;37.50;;;;;12.40;63.34;102103.94;4981322;28;45738;-59
2023/04/17 11:06:52;;;;;;;;;38.25;35.75;;;;;12.32;63.25;102080.88;4989924;28;45411;-58
2023/04/17 11:09:20;;;;;;;;;51.50;40.75;;;;;12.39;63.26;102102.16;4978779;28;45796;-58
2023/04/17 11:11:45;;;;;;;;;43.25;35.00;;;;;12.39;63.41;102095.91;4978364;28;45522;-58